Weather at Fallbrook Community Airpark

Public forecast

Using degrees Fahrenheit for public forecast. Weather courtesy of forecast.io.

Closest aviation weather report (METAR) to Fallbrook Community Airpark

Closest report is Camp Pendleton MCAS (Munn Field) Airport, 6.1 nm (11.3 km) WSW. Retrieved 2021/08/02 13:55 UTC (56 minutes ago):

KNFG 021355Z AUTO 00000KT 10SM CLR 16/11 A3005 RMK AO2 SLP176 T01610111

Closest aviation forecast (TAF) to Fallbrook Community Airpark

Closest forecast is Mc Clellan-Palomar Airport, 13.6 nm (25.3 km) S. Retrieved 2021/08/02 12:27 UTC (2 hours ago):

TAF KCRQ 021124Z 0212/0312 VRB03KT P6SM SKC TEMPO 0213/0215 1/2SM FG BKN002 FM021800 26008KT P6SM SKC FM030300 VRB04KT P6SM SKC